Cologne, Virginia
Current Conditions -  °F | °C
As of 1:15 PM on Thursday 30 Oct 2014 (Local Time) from KFYJ Reporting Station
Clear Clear  
Wind Chill: 65°   Ceiling: Unl
Heat Index: 65°   Visibility: 10mi
Dew Point: 40°   Wind: 9mph
Humidity: 41%   Direction: 340°NNW
Pressure: 30.05"   Gusts: NA
Location:  37.6069°N, 76.8926°W
Report Text: KFYJ 301715Z AUTO 34008KT 10SM CLR 18/05 A3005 RMK AO2 T01830047
Loading
Personal Weather Stations






























Interactive Weather Map
Tropical Storm Tracking
New forecast layout! Learn more

10-Day Weather Forecast

Advertisements
Track Severe Weather on mobile